KLGA/LGA METAR and TAF weather

Enter ICAO airport designator
Station Type Date Time Source
KLGA METAR 2023/03/26 02:51 UTC NOAA

KLGA 260251Z 04014KT 1 1/2SM -DZ BR OVC003 06/04 A2973 RMK AO2 SFC VIS 3 SLP068 P0000 60000 T00560039 58006 $


Station Type Date Time Source
KLGA Decoded METAR 2023/03/26 02:51 UTC NOAA

NEW YORK LA GUARDIA AIRPORT , NY, United States (KLGA) 40-47N 73-53W 11M
Mar 25, 2023 - 10:51 PM EDT / 2023.03.26 0251 UTC
Wind: from the NE (040 degrees) at 16 MPH (14 KT):0
Visibility: 1 1/2 mile(s):0
Sky conditions: overcast
Weather: light drizzle; mist
Precipitation last hour: A trace
Temperature: 42.1 F (5.6 C)
Dew Point: 39.0 F (3.9 C)
Relative Humidity: 88%
Pressure (altimeter): 29.73 in. Hg (1006 hPa)
Pressure tendency: 0.02 inches (0.6 hPa) lower than three hours ago
ob: KLGA 260251Z 04014KT 1 1/2SM -DZ BR OVC003 06/04 A2973 RMK AO2 SFC VIS 3 SLP068 P0000 60000 T00560039 58006
cycle: 3

Station Type Date Time Source
KLGA TAF 2023/03/26 03:33 UTC NOAA

TAF
AMD KLGA 260230Z 2603/2706 05010KT 2SM -DZ BR OVC003
TEMPO 2603/2605 2SM -SHRA BR
FM260500 06007KT 4SM BR SCT004 OVC007
FM260700 26007KT P6SM SCT009 BKN015
FM260900 28010KT P6SM FEW015 SCT035
FM261100 28013G19KT P6SM FEW035
FM261300 27015G25KT P6SM SKC
FM262300 27012KT P6SM SKC
FM270200 30007KT P6SM SKC

Example: see airport list